createdAt,value
2022-12-31T00:00:34.510Z,0.40
2022-12-31T00:03:02.501Z,0.40
2022-12-31T00:05:33.289Z,0.55
2022-12-31T00:08:01.572Z,0.50
2022-12-31T00:10:30.628Z,0.77
2022-12-31T00:12:58.399Z,0.65
2022-12-31T00:15:26.099Z,0.85
2022-12-31T00:17:53.855Z,0.60
2022-12-31T00:20:21.674Z,0.57
2022-12-31T00:22:50.958Z,1.50
2022-12-31T00:25:18.774Z,1.17
2022-12-31T00:27:46.624Z,0.70
2022-12-31T00:30:15.854Z,0.38
2022-12-31T00:32:43.695Z,1.15
2022-12-31T00:35:11.455Z,0.65
2022-12-31T00:37:39.171Z,0.50
2022-12-31T00:40:11.272Z,0.80
2022-12-31T00:42:39.028Z,0.40
2022-12-31T00:45:07.735Z,0.65
2022-12-31T00:47:35.834Z,0.30
2022-12-31T00:50:03.698Z,0.50
2022-12-31T00:52:31.445Z,0.50
2022-12-31T00:54:59.205Z,0.60
2022-12-31T00:57:28.450Z,0.30
2022-12-31T00:59:56.214Z,0.40
2022-12-31T01:02:24.103Z,0.50
2022-12-31T01:04:52.180Z,0.63
2022-12-31T01:07:19.935Z,0.60
2022-12-31T01:09:47.698Z,0.60
2022-12-31T01:12:15.466Z,0.60
2022-12-31T01:14:44.746Z,0.38
2022-12-31T01:17:13.428Z,0.32
2022-12-31T01:19:41.276Z,0.28
2022-12-31T01:22:09.028Z,0.43
2022-12-31T01:24:36.762Z,0.50
2022-12-31T01:27:04.717Z,0.30
2022-12-31T01:29:32.414Z,0.50
2022-12-31T01:32:01.587Z,0.30
2022-12-31T01:34:29.351Z,0.40
2022-12-31T01:36:57.124Z,0.38
2022-12-31T01:39:25.066Z,0.40
2022-12-31T01:41:52.857Z,0.45
2022-12-31T01:44:52.174Z,0.50
2022-12-31T01:47:31.872Z,0.40
2022-12-31T01:50:05.328Z,0.32
2022-12-31T01:52:35.689Z,0.30
2022-12-31T01:55:09.871Z,0.40
2022-12-31T01:57:38.543Z,0.40
2022-12-31T02:00:08.035Z,0.43
2022-12-31T02:02:38.282Z,0.45
2022-12-31T02:05:13.224Z,0.30
2022-12-31T02:07:41.194Z,0.40
2022-12-31T02:10:09.506Z,0.50
2022-12-31T02:12:37.305Z,0.40
2022-12-31T02:15:05.892Z,0.40
2022-12-31T02:17:40.185Z,0.50
2022-12-31T02:23:09.096Z,0.32
2022-12-31T02:26:05.954Z,0.60
2022-12-31T02:28:57.052Z,0.50
2022-12-31T02:31:32.855Z,0.40
2022-12-31T02:34:09.396Z,0.40
2022-12-31T02:36:41.564Z,0.90
2022-12-31T02:39:12.740Z,0.80
2022-12-31T02:41:53.680Z,0.43
2022-12-31T02:44:26.841Z,0.40
2022-12-31T02:47:07.179Z,0.52
2022-12-31T02:49:43.510Z,0.40
2022-12-31T02:52:26.670Z,0.47
2022-12-31T02:55:03.433Z,0.70
2022-12-31T02:57:39.335Z,0.50
2022-12-31T03:00:26.912Z,0.55
2022-12-31T03:02:57.373Z,0.40
2022-12-31T03:05:29.384Z,0.40
2022-12-31T03:07:57.273Z,0.50
2022-12-31T03:10:25.123Z,0.60
2022-12-31T03:12:52.093Z,0.50
2022-12-31T03:15:22.221Z,0.50
2022-12-31T03:17:56.933Z,0.40
2022-12-31T03:20:45.015Z,0.30
2022-12-31T03:23:16.723Z,0.40
2022-12-31T03:25:43.703Z,0.60
2022-12-31T03:28:14.806Z,0.50
2022-12-31T03:30:45.168Z,0.47
2022-12-31T03:33:14.875Z,0.50
2022-12-31T03:35:49.546Z,0.60
2022-12-31T03:38:18.928Z,0.50
2022-12-31T03:40:49.418Z,0.38
2022-12-31T03:43:17.347Z,0.70
2022-12-31T03:45:45.161Z,0.68
2022-12-31T03:48:14.398Z,0.60
2022-12-31T03:50:42.199Z,0.60
2022-12-31T03:53:10.024Z,0.50
2022-12-31T03:55:37.973Z,0.60
2022-12-31T03:58:06.091Z,0.60
2022-12-31T04:00:34.036Z,0.60
2022-12-31T04:03:01.756Z,0.70
2022-12-31T04:05:31.259Z,0.90
2022-12-31T04:07:59.181Z,0.68
2022-12-31T04:10:27.000Z,0.70
2022-12-31T04:12:54.775Z,0.60
2022-12-31T04:15:22.873Z,0.47
2022-12-31T04:17:50.668Z,0.70
2022-12-31T04:20:20.860Z,0.70
2022-12-31T04:22:51.340Z,0.70
2022-12-31T04:25:19.117Z,0.70
2022-12-31T04:27:47.234Z,0.60
2022-12-31T04:30:15.943Z,0.70
2022-12-31T04:32:43.926Z,0.70
2022-12-31T04:35:13.096Z,0.60
2022-12-31T04:37:41.241Z,0.28
2022-12-31T04:40:11.156Z,0.68
2022-12-31T04:42:38.862Z,0.50
2022-12-31T04:45:07.992Z,0.20
2022-12-31T04:47:35.730Z,0.40
2022-12-31T04:50:05.452Z,0.80
2022-12-31T04:52:38.616Z,0.70
2022-12-31T04:55:12.221Z,0.93
2022-12-31T04:57:40.015Z,0.70
2022-12-31T05:00:09.404Z,0.60
2022-12-31T05:02:37.470Z,0.60
2022-12-31T05:05:05.860Z,0.70
2022-12-31T05:07:33.582Z,0.55
2022-12-31T05:10:01.332Z,0.70
2022-12-31T05:12:30.397Z,0.60
2022-12-31T05:14:58.128Z,0.47
2022-12-31T05:17:25.844Z,0.80
2022-12-31T05:19:53.587Z,0.50
2022-12-31T05:22:30.272Z,0.50
2022-12-31T05:24:58.891Z,0.70
2022-12-31T05:27:27.683Z,0.57
2022-12-31T05:29:56.762Z,0.85
2022-12-31T05:32:24.466Z,0.60
2022-12-31T05:34:53.594Z,0.75
2022-12-31T05:37:21.429Z,0.30
2022-12-31T05:39:49.125Z,0.82
2022-12-31T05:42:17.703Z,0.40
2022-12-31T05:44:45.460Z,0.30
2022-12-31T05:47:14.637Z,0.52
2022-12-31T05:49:42.437Z,0.90
2022-12-31T05:52:10.527Z,1.08
2022-12-31T05:54:38.382Z,1.70
2022-12-31T05:57:06.774Z,0.52
2022-12-31T05:59:35.271Z,0.80
2022-12-31T06:02:03.232Z,0.90
2022-12-31T06:04:32.752Z,0.82
2022-12-31T06:07:00.564Z,0.60
2022-12-31T06:09:28.409Z,0.60
2022-12-31T06:11:56.278Z,0.50
2022-12-31T06:14:24.185Z,0.50
2022-12-31T06:16:51.851Z,0.30
2022-12-31T06:19:19.609Z,0.88
2022-12-31T06:21:48.785Z,0.43
2022-12-31T06:24:16.598Z,0.65
2022-12-31T06:26:44.474Z,0.60
2022-12-31T06:29:15.430Z,0.60
2022-12-31T06:31:43.176Z,1.00
2022-12-31T06:34:12.469Z,0.70
2022-12-31T06:36:40.281Z,0.77
2022-12-31T06:39:09.680Z,0.70
2022-12-31T06:41:37.396Z,0.80
2022-12-31T06:44:05.593Z,0.57
2022-12-31T06:46:33.356Z,0.85
2022-12-31T06:49:01.068Z,0.70
2022-12-31T06:51:28.830Z,0.90
2022-12-31T06:53:56.551Z,0.70
2022-12-31T06:56:34.039Z,0.90
2022-12-31T06:59:03.612Z,0.80
2022-12-31T07:01:44.120Z,0.50
2022-12-31T07:04:37.206Z,0.77
2022-12-31T07:07:09.540Z,0.63
2022-12-31T07:09:46.511Z,0.65
2022-12-31T07:12:28.691Z,0.50
2022-12-31T07:15:03.269Z,0.80
2022-12-31T07:17:39.746Z,0.80
2022-12-31T07:20:11.531Z,0.90
2022-12-31T07:22:39.719Z,1.00
2022-12-31T07:25:08.604Z,1.00
2022-12-31T07:28:08.179Z,0.82
2022-12-31T07:30:43.036Z,0.52
2022-12-31T07:33:30.687Z,0.90
2022-12-31T07:36:12.306Z,1.00
2022-12-31T07:38:50.702Z,1.00
2022-12-31T07:41:40.818Z,0.90
2022-12-31T07:44:25.176Z,0.70
2022-12-31T07:46:56.885Z,1.13
2022-12-31T07:49:29.131Z,0.73
2022-12-31T07:51:58.181Z,0.68
2022-12-31T07:54:26.025Z,1.10
2022-12-31T07:56:53.896Z,0.80
2022-12-31T07:59:37.861Z,0.93
2022-12-31T08:02:14.407Z,0.90
2022-12-31T08:04:53.745Z,0.88
2022-12-31T08:07:33.460Z,1.00
2022-12-31T08:10:08.312Z,0.68
2022-12-31T08:12:42.000Z,0.80
2022-12-31T08:15:16.332Z,0.65
2022-12-31T08:17:44.905Z,0.50
2022-12-31T08:20:15.846Z,0.80
2022-12-31T08:23:00.607Z,0.60
2022-12-31T08:25:33.861Z,0.57
2022-12-31T08:28:08.004Z,0.45
2022-12-31T08:30:45.545Z,0.57
2022-12-31T08:33:20.796Z,0.68
2022-12-31T08:36:01.976Z,0.98
2022-12-31T08:38:38.845Z,0.88
2022-12-31T08:41:19.025Z,0.80
2022-12-31T08:43:57.072Z,0.70
2022-12-31T08:46:32.149Z,0.60
2022-12-31T08:49:01.723Z,0.77
2022-12-31T08:51:30.033Z,0.50
2022-12-31T08:53:58.508Z,0.57
2022-12-31T08:56:31.601Z,0.90
2022-12-31T08:59:20.002Z,0.57
2022-12-31T09:02:05.132Z,0.60
2022-12-31T09:04:47.610Z,0.60
2022-12-31T09:07:18.039Z,0.50
2022-12-31T09:09:57.519Z,1.13
2022-12-31T09:12:32.471Z,1.00
2022-12-31T09:15:04.917Z,0.80
2022-12-31T09:17:44.176Z,0.50
2022-12-31T09:20:25.353Z,0.75
2022-12-31T09:22:56.293Z,0.70
2022-12-31T09:25:25.738Z,0.68
2022-12-31T09:28:07.996Z,0.70
2022-12-31T09:30:43.342Z,0.60
2022-12-31T09:33:18.125Z,0.65
2022-12-31T09:35:53.213Z,0.60
2022-12-31T09:38:28.722Z,1.20
2022-12-31T09:41:16.516Z,0.60
2022-12-31T09:44:37.793Z,0.45
2022-12-31T09:47:30.727Z,0.70
2022-12-31T09:50:32.377Z,0.30
2022-12-31T09:53:19.841Z,0.68
2022-12-31T09:55:53.880Z,0.55
2022-12-31T10:01:03.408Z,0.47
2022-12-31T10:03:44.693Z,0.65
2022-12-31T10:06:24.047Z,0.73
2022-12-31T10:09:22.198Z,0.63
2022-12-31T10:12:07.134Z,0.70
2022-12-31T10:14:47.672Z,0.70
2022-12-31T10:17:33.384Z,0.73
2022-12-31T10:20:28.250Z,0.55
2022-12-31T10:23:18.761Z,0.60
2022-12-31T10:26:12.702Z,0.32
2022-12-31T10:28:50.840Z,0.80
2022-12-31T10:31:37.299Z,0.77
2022-12-31T10:34:14.916Z,0.60
2022-12-31T10:36:55.270Z,0.47
2022-12-31T10:39:49.127Z,0.45
2022-12-31T10:42:46.917Z,0.60
2022-12-31T10:45:57.751Z,0.60
2022-12-31T10:49:00.173Z,0.88
2022-12-31T10:51:54.829Z,0.70
2022-12-31T10:57:32.155Z,0.35
2022-12-31T11:00:18.326Z,0.65
2022-12-31T11:03:34.209Z,0.40
2022-12-31T11:06:56.051Z,0.60
2022-12-31T11:09:53.528Z,0.82
2022-12-31T11:12:48.023Z,0.43
2022-12-31T11:15:32.621Z,0.60
2022-12-31T11:18:12.979Z,0.60
2022-12-31T11:20:55.904Z,0.60
2022-12-31T11:23:35.869Z,0.80
2022-12-31T11:26:14.164Z,0.45
2022-12-31T11:29:08.391Z,0.50
2022-12-31T11:31:52.293Z,0.50
2022-12-31T11:34:52.663Z,0.47
2022-12-31T11:37:36.122Z,0.80
2022-12-31T11:40:20.485Z,0.80
2022-12-31T11:45:45.704Z,0.50
2022-12-31T11:48:32.430Z,0.57
2022-12-31T11:51:16.140Z,0.50
2022-12-31T11:54:14.178Z,0.52
2022-12-31T11:56:45.170Z,0.70
2022-12-31T11:59:19.575Z,0.40
2022-12-31T12:01:57.616Z,0.40
2022-12-31T12:04:25.533Z,0.80
2022-12-31T12:06:54.263Z,0.40
2022-12-31T12:09:29.613Z,0.70
2022-12-31T12:12:02.547Z,0.50
2022-12-31T12:14:36.336Z,0.40
2022-12-31T12:17:10.284Z,0.60
2022-12-31T12:19:44.364Z,0.73
2022-12-31T12:24:41.140Z,0.57
2022-12-31T12:27:23.051Z,0.30
2022-12-31T12:29:50.905Z,0.50
2022-12-31T12:32:21.780Z,0.45
2022-12-31T12:34:50.316Z,0.50
2022-12-31T12:37:29.839Z,0.60
2022-12-31T12:39:59.092Z,0.50
2022-12-31T12:42:26.865Z,0.50
2022-12-31T12:45:08.839Z,0.35
2022-12-31T12:47:38.116Z,0.70
2022-12-31T12:50:13.991Z,0.50
2022-12-31T12:52:59.694Z,0.40
2022-12-31T12:55:37.694Z,0.88
2022-12-31T12:58:19.660Z,0.43
2022-12-31T13:00:54.975Z,0.50
2022-12-31T13:04:33.683Z,0.45
2022-12-31T13:07:12.303Z,0.40
2022-12-31T13:09:55.023Z,0.57
2022-12-31T13:12:48.844Z,0.57
2022-12-31T13:15:28.928Z,0.30
2022-12-31T13:18:04.319Z,0.35
2022-12-31T13:20:39.914Z,0.30
2022-12-31T13:23:19.544Z,0.60
2022-12-31T13:25:59.798Z,0.93
2022-12-31T13:28:28.632Z,0.40
2022-12-31T13:31:06.571Z,0.63
2022-12-31T13:33:39.366Z,0.30
2022-12-31T13:36:11.218Z,0.40
2022-12-31T13:38:42.678Z,0.45
2022-12-31T13:41:14.690Z,0.30
2022-12-31T13:43:51.279Z,0.85
2022-12-31T13:46:25.471Z,0.70
2022-12-31T13:51:35.056Z,0.40
2022-12-31T13:54:07.354Z,0.60
2022-12-31T13:56:38.916Z,0.50
2022-12-31T13:59:14.288Z,0.70
2022-12-31T14:01:46.514Z,0.70
2022-12-31T14:04:20.098Z,0.45
2022-12-31T14:06:54.622Z,0.50
2022-12-31T14:09:24.973Z,0.60
2022-12-31T14:12:10.181Z,0.52
2022-12-31T14:14:47.388Z,0.40
2022-12-31T14:17:24.639Z,1.33
2022-12-31T14:20:02.656Z,1.70
2022-12-31T14:22:40.799Z,0.85
2022-12-31T14:25:18.115Z,1.38
2022-12-31T14:27:48.326Z,0.77
2022-12-31T14:30:18.854Z,0.98
2022-12-31T14:33:02.712Z,0.63
2022-12-31T14:35:48.102Z,0.45
2022-12-31T14:38:33.394Z,0.50
2022-12-31T14:41:13.728Z,0.90
2022-12-31T14:43:51.503Z,0.85
2022-12-31T14:46:30.845Z,0.70
2022-12-31T14:49:14.486Z,0.65
2022-12-31T14:51:42.991Z,0.97
2022-12-31T14:54:29.101Z,0.68
2022-12-31T14:56:57.070Z,0.68
2022-12-31T14:59:27.800Z,0.70
2022-12-31T15:01:56.890Z,0.70
2022-12-31T15:04:33.629Z,0.90
2022-12-31T15:07:11.986Z,0.75
2022-12-31T15:09:57.101Z,0.90
2022-12-31T15:12:48.467Z,0.65
2022-12-31T15:15:35.998Z,0.68
2022-12-31T15:18:22.962Z,0.60
2022-12-31T15:21:10.343Z,0.50
2022-12-31T15:23:42.125Z,0.50
2022-12-31T15:26:23.594Z,0.65
2022-12-31T15:29:00.672Z,0.55
2022-12-31T15:31:29.419Z,0.50
2022-12-31T15:34:00.844Z,0.70
2022-12-31T15:36:30.918Z,0.70
2022-12-31T15:39:08.726Z,0.70
2022-12-31T15:42:10.281Z,0.90
2022-12-31T15:44:49.087Z,0.80
2022-12-31T15:47:21.961Z,0.70
2022-12-31T15:49:51.525Z,0.80
2022-12-31T15:52:24.975Z,0.80
2022-12-31T15:54:56.492Z,0.50
2022-12-31T15:57:35.092Z,0.93
2022-12-31T16:00:06.496Z,1.10
2022-12-31T16:02:34.435Z,1.00
2022-12-31T16:05:02.699Z,0.90
2022-12-31T16:07:30.609Z,1.20
2022-12-31T16:10:01.672Z,1.98
2022-12-31T16:12:42.491Z,2.63
2022-12-31T16:15:22.099Z,3.67
2022-12-31T16:18:04.924Z,2.10
2022-12-31T16:20:34.650Z,3.85
2022-12-31T16:23:04.299Z,2.28
2022-12-31T16:25:34.046Z,1.20
2022-12-31T16:28:04.818Z,1.98
2022-12-31T16:30:36.899Z,1.42
2022-12-31T16:33:06.899Z,1.60
2022-12-31T16:35:37.355Z,1.17
2022-12-31T16:38:13.472Z,1.05
2022-12-31T16:40:44.887Z,0.98
2022-12-31T16:43:37.416Z,1.15
2022-12-31T16:46:11.357Z,1.52
2022-12-31T16:48:39.440Z,1.40
2022-12-31T16:51:07.868Z,1.67
2022-12-31T16:53:38.829Z,2.42
2022-12-31T16:56:09.811Z,1.08
2022-12-31T16:58:42.051Z,1.70
2022-12-31T17:01:14.696Z,1.48
2022-12-31T17:03:46.290Z,1.10
2022-12-31T17:06:16.674Z,1.17
2022-12-31T17:08:46.515Z,1.05
2022-12-31T17:11:29.656Z,1.15
2022-12-31T17:14:06.997Z,1.23
2022-12-31T17:16:36.623Z,1.65
2022-12-31T17:19:05.327Z,1.67
2022-12-31T17:21:33.746Z,1.50
2022-12-31T17:24:04.408Z,1.50
2022-12-31T17:26:34.820Z,1.42
2022-12-31T17:29:06.041Z,1.55
2022-12-31T17:31:36.866Z,1.40
2022-12-31T17:34:30.484Z,1.70
2022-12-31T17:37:04.003Z,1.05
2022-12-31T17:40:17.006Z,1.30
2022-12-31T17:42:47.369Z,1.25
2022-12-31T17:45:21.603Z,1.60
2022-12-31T17:47:52.498Z,1.48
2022-12-31T17:50:21.997Z,1.38
2022-12-31T17:52:50.080Z,1.30
2022-12-31T17:55:18.109Z,1.38
2022-12-31T17:57:52.229Z,1.40
2022-12-31T18:02:50.023Z,1.48
2022-12-31T18:05:20.436Z,1.70
2022-12-31T18:07:48.621Z,1.27
2022-12-31T18:10:18.874Z,1.67
2022-12-31T18:12:48.721Z,1.98
2022-12-31T18:15:18.170Z,1.88
2022-12-31T18:17:47.345Z,2.03
2022-12-31T18:20:15.719Z,2.30
2022-12-31T18:22:47.069Z,2.50
2022-12-31T18:25:19.780Z,2.25
2022-12-31T18:27:48.052Z,1.58
2022-12-31T18:30:16.512Z,1.98
2022-12-31T18:32:45.803Z,2.50
2022-12-31T18:35:40.636Z,2.63
2022-12-31T18:38:15.643Z,3.33
2022-12-31T18:40:46.652Z,2.83
2022-12-31T18:43:17.508Z,2.60
2022-12-31T18:45:45.851Z,2.90
2022-12-31T18:48:14.230Z,3.50
2022-12-31T18:50:43.961Z,3.03
2022-12-31T18:53:16.782Z,2.88
2022-12-31T18:55:47.953Z,2.33
2022-12-31T18:58:18.376Z,3.25
2022-12-31T19:00:47.057Z,2.70
2022-12-31T19:03:16.347Z,2.92
2022-12-31T19:05:49.573Z,4.10
2022-12-31T19:08:17.568Z,3.80
2022-12-31T19:10:45.509Z,3.97
2022-12-31T19:13:14.014Z,2.80
2022-12-31T19:15:43.864Z,3.10
2022-12-31T19:18:11.725Z,2.38
2022-12-31T19:20:41.083Z,3.35
2022-12-31T19:23:16.306Z,3.53
2022-12-31T19:25:44.230Z,2.28
2022-12-31T19:28:17.019Z,2.80
2022-12-31T19:30:45.408Z,3.30
2022-12-31T19:33:13.545Z,2.40
2022-12-31T19:35:42.042Z,2.88
2022-12-31T19:38:18.037Z,2.42
2022-12-31T19:40:46.276Z,2.45
2022-12-31T19:43:15.591Z,3.33
2022-12-31T19:45:44.551Z,2.90
2022-12-31T19:48:14.351Z,2.88
2022-12-31T19:50:44.179Z,3.17
2022-12-31T19:53:16.026Z,3.28
2022-12-31T19:55:44.203Z,2.45
2022-12-31T19:58:18.601Z,3.03
2022-12-31T20:00:54.602Z,2.60
2022-12-31T20:03:25.179Z,3.22
2022-12-31T20:06:01.161Z,3.13
2022-12-31T20:08:30.316Z,2.80
2022-12-31T20:10:58.908Z,2.17
2022-12-31T20:13:27.396Z,3.15
2022-12-31T20:15:55.171Z,3.30
2022-12-31T20:18:23.168Z,2.88
2022-12-31T20:20:55.766Z,3.22
2022-12-31T20:23:23.893Z,2.75
2022-12-31T20:25:59.084Z,3.42
2022-12-31T20:28:26.935Z,2.90
2022-12-31T20:30:54.943Z,2.80
2022-12-31T20:33:23.046Z,2.97
2022-12-31T20:35:51.175Z,2.85
2022-12-31T20:38:18.858Z,3.22
2022-12-31T20:40:47.238Z,2.83
2022-12-31T20:43:16.530Z,3.58
2022-12-31T20:45:44.791Z,3.53
2022-12-31T20:48:12.601Z,3.28
2022-12-31T20:50:40.431Z,3.35
2022-12-31T20:53:08.161Z,3.35
2022-12-31T20:55:38.516Z,3.65
2022-12-31T20:58:06.346Z,4.20
2022-12-31T21:00:35.427Z,3.75
2022-12-31T21:03:14.402Z,3.60
2022-12-31T21:05:52.029Z,4.20
2022-12-31T21:08:20.385Z,3.67
2022-12-31T21:10:49.095Z,3.25
2022-12-31T21:13:18.713Z,1.85
2022-12-31T21:15:50.082Z,4.43
2022-12-31T21:18:18.438Z,3.20
2022-12-31T21:20:47.934Z,2.22
2022-12-31T21:23:15.860Z,3.15
2022-12-31T21:25:44.846Z,3.75
2022-12-31T21:28:13.672Z,2.42
2022-12-31T21:30:42.033Z,4.32
2022-12-31T21:33:11.211Z,4.30
2022-12-31T21:35:46.926Z,4.63
2022-12-31T21:38:19.882Z,4.00
2022-12-31T21:40:47.686Z,5.00
2022-12-31T21:43:17.623Z,5.07
2022-12-31T21:45:45.546Z,4.95
2022-12-31T21:48:22.194Z,4.78
2022-12-31T21:50:51.826Z,5.25
2022-12-31T21:53:24.813Z,4.65
2022-12-31T21:56:09.708Z,5.13
2022-12-31T21:58:40.348Z,4.72
2022-12-31T22:01:26.464Z,5.45
2022-12-31T22:03:55.695Z,4.20
2022-12-31T22:06:25.149Z,4.72
2022-12-31T22:08:54.597Z,4.68
2022-12-31T22:11:25.015Z,5.43
2022-12-31T22:13:53.607Z,4.72
2022-12-31T22:16:22.234Z,5.30
2022-12-31T22:18:50.607Z,3.90
2022-12-31T22:21:21.447Z,4.25
2022-12-31T22:23:51.743Z,4.35
2022-12-31T22:26:21.644Z,5.13
2022-12-31T22:28:49.638Z,4.30
2022-12-31T22:31:19.616Z,4.53
2022-12-31T22:33:47.823Z,4.50
2022-12-31T22:36:18.743Z,4.50
2022-12-31T22:38:49.125Z,3.60
2022-12-31T22:41:19.303Z,4.03
2022-12-31T22:43:48.952Z,4.32
2022-12-31T22:46:18.193Z,4.20
2022-12-31T22:48:46.938Z,3.92
2022-12-31T22:51:15.669Z,5.22
2022-12-31T22:53:43.836Z,3.75
2022-12-31T22:56:14.608Z,4.18
2022-12-31T22:58:42.485Z,4.47
2022-12-31T23:01:17.408Z,5.90
2022-12-31T23:03:46.537Z,4.90
2022-12-31T23:06:14.738Z,5.85
2022-12-31T23:09:03.269Z,5.78
2022-12-31T23:11:36.436Z,9.38
2022-12-31T23:14:22.288Z,8.90
2022-12-31T23:17:30.188Z,8.05
2022-12-31T23:20:13.334Z,7.18
2022-12-31T23:22:58.524Z,8.02
2022-12-31T23:25:26.341Z,8.85
2022-12-31T23:27:55.515Z,9.88
2022-12-31T23:30:23.321Z,14.73
2022-12-31T23:32:51.053Z,15.65
2022-12-31T23:35:18.931Z,19.70
2022-12-31T23:37:46.723Z,18.23
2022-12-31T23:40:20.983Z,21.27
2022-12-31T23:42:49.620Z,26.73
2022-12-31T23:45:18.780Z,28.52
2022-12-31T23:47:46.643Z,29.17
2022-12-31T23:50:14.377Z,34.55
2022-12-31T23:52:42.224Z,31.83
2022-12-31T23:55:10.480Z,30.33
2022-12-31T23:57:38.458Z,29.17
